Time;durP1;ratioP1;P1;durP2;ratioP2;P2;SDS_P1;SDS_P2;PMS_P1;PMS_P2;Temp;Humidity;BMP_temperature;BMP_pressure;BME280_temperature;BME280_humidity;BME280_pressure;Samples;Min_cycle;Max_cycle;Signal;HPM_P1;HPM_P2
2023/09/26 00:00:06;;;;;;;6.55;1.80;;;;;;;;;;4978440;28;20163;-72
2023/09/26 00:02:33;;;;;;;5.15;1.60;;;;;;;;;;4972406;28;20035;-71
2023/09/26 00:04:59;;;;;;;6.25;1.95;;;;;;;;;;4975042;28;20505;-71
2023/09/26 00:07:27;;;;;;;7.18;2.17;;;;;;;;;;4976274;28;20030;-71
2023/09/26 00:09:53;;;;;;;7.47;2.17;;;;;;;;;;4974397;28;20543;-71
2023/09/26 00:12:19;;;;;;;6.13;2.08;;;;;;;;;;4975059;28;20510;-71
2023/09/26 00:14:45;;;;;;;6.65;2.10;;;;;;;;;;4970530;28;20454;-73
2023/09/26 00:17:11;;;;;;;6.20;2.00;;;;;;;;;;4975007;28;20037;-73
2023/09/26 00:19:37;;;;;;;6.00;2.20;;;;;;;;;;4975859;28;20754;-71
2023/09/26 00:22:03;;;;;;;6.95;1.98;;;;;;;;;;4994618;28;20029;-71
2023/09/26 00:24:30;;;;;;;6.28;2.00;;;;;;;;;;4974084;28;20057;-71
2023/09/26 00:26:57;;;;;;;6.18;2.00;;;;;;;;;;4977090;28;20376;-72
2023/09/26 00:29:23;;;;;;;5.57;2.00;;;;;;;;;;4977976;28;20380;-72
2023/09/26 00:31:51;;;;;;;6.38;2.10;;;;;;;;;;4975059;28;20443;-72
2023/09/26 00:34:17;;;;;;;6.00;2.05;;;;;;;;;;4978104;28;20045;-72
2023/09/26 00:36:44;;;;;;;5.22;1.85;;;;;;;;;;4977619;28;20459;-71
2023/09/26 00:39:10;;;;;;;5.60;2.03;;;;;;;;;;4977931;28;20107;-71
2023/09/26 00:41:36;;;;;;;5.57;1.90;;;;;;;;;;4973781;28;20112;-71
2023/09/26 00:44:02;;;;;;;7.85;2.25;;;;;;;;;;4977961;28;20041;-71
2023/09/26 00:46:29;;;;;;;6.18;2.05;;;;;;;;;;4977591;28;20515;-71
2023/09/26 00:48:56;;;;;;;5.63;2.00;;;;;;;;;;4982397;28;20321;-73
2023/09/26 00:51:22;;;;;;;8.05;2.17;;;;;;;;;;4979094;28;20038;-73
2023/09/26 00:53:48;;;;;;;7.00;2.10;;;;;;;;;;4975767;28;20083;-71
2023/09/26 00:56:14;;;;;;;6.18;2.00;;;;;;;;;;4980620;28;20041;-71
2023/09/26 00:58:41;;;;;;;7.43;2.28;;;;;;;;;;4976163;28;20030;-71
2023/09/26 01:01:08;;;;;;;5.85;1.95;;;;;;;;;;4979815;28;20049;-71
2023/09/26 01:03:34;;;;;;;4.28;1.63;;;;;;;;;;4978441;28;20053;-71
2023/09/26 01:06:02;;;;;;;6.60;2.15;;;;;;;;;;4977820;28;20042;-71
2023/09/26 01:08:30;;;;;;;6.75;2.17;;;;;;;;;;4974406;28;20049;-71
2023/09/26 01:10:57;;;;;;;7.03;1.98;;;;;;;;;;4978830;28;20095;-71
2023/09/26 01:13:23;;;;;;;6.95;2.10;;;;;;;;;;4977755;28;20057;-72
2023/09/26 01:15:49;;;;;;;7.75;2.53;;;;;;;;;;4974024;28;20042;-71
2023/09/26 01:18:17;;;;;;;6.65;2.00;;;;;;;;;;4979301;28;20152;-70
2023/09/26 01:20:46;;;;;;;7.00;1.98;;;;;;;;;;4976509;28;20045;-70
2023/09/26 01:23:13;;;;;;;6.25;2.00;;;;;;;;;;4975951;28;20436;-70
2023/09/26 01:25:43;;;;;;;6.30;1.80;;;;;;;;;;4975019;28;20119;-71
2023/09/26 01:28:10;;;;;;;5.07;1.73;;;;;;;;;;4979422;28;20026;-72
2023/09/26 01:30:40;;;;;;;5.80;1.85;;;;;;;;;;4972822;28;20125;-72
2023/09/26 01:33:19;;;;;;;6.35;2.03;;;;;;;;;;4980061;28;20109;-72
2023/09/26 01:35:45;;;;;;;6.32;1.95;;;;;;;;;;4973458;28;20034;-72
2023/09/26 01:38:11;;;;;;;5.38;1.77;;;;;;;;;;4976407;28;20038;-71
2023/09/26 01:40:37;;;;;;;5.55;1.77;;;;;;;;;;4974835;28;20034;-72
2023/09/26 01:43:04;;;;;;;5.22;1.73;;;;;;;;;;4976472;28;20042;-72
2023/09/26 01:45:30;;;;;;;6.13;1.92;;;;;;;;;;4975567;28;20038;-72
2023/09/26 01:47:56;;;;;;;5.55;1.73;;;;;;;;;;4981253;28;20026;-72
2023/09/26 01:50:22;;;;;;;5.65;1.83;;;;;;;;;;4974194;28;20052;-71
2023/09/26 01:52:49;;;;;;;6.10;1.70;;;;;;;;;;4975963;28;20030;-71
2023/09/26 01:55:20;;;;;;;6.47;1.85;;;;;;;;;;4978957;28;20516;-71
2023/09/26 01:57:46;;;;;;;5.05;1.92;;;;;;;;;;4972979;28;20112;-72
2023/09/26 02:00:13;;;;;;;6.40;2.20;;;;;;;;;;4975928;28;20133;-71
2023/09/26 02:02:43;;;;;;;6.55;2.10;;;;;;;;;;4975209;28;20030;-71
2023/09/26 02:05:10;;;;;;;6.95;2.08;;;;;;;;;;4976728;28;20057;-72
2023/09/26 02:07:37;;;;;;;4.50;1.70;;;;;;;;;;4977028;28;20037;-72
2023/09/26 02:10:04;;;;;;;6.13;1.95;;;;;;;;;;4976667;28;20030;-72
2023/09/26 02:12:40;;;;;;;7.15;2.20;;;;;;;;;;4993470;28;20050;-71
2023/09/26 02:15:08;;;;;;;6.47;1.92;;;;;;;;;;4978584;28;20033;-71
2023/09/26 02:17:35;;;;;;;6.00;2.10;;;;;;;;;;4974694;28;20104;-73
2023/09/26 02:20:10;;;;;;;6.07;2.10;;;;;;;;;;4979052;28;20486;-70
2023/09/26 02:22:36;;;;;;;6.60;2.00;;;;;;;;;;4975280;28;20030;-72
2023/09/26 02:25:03;;;;;;;6.40;2.10;;;;;;;;;;4978078;28;20429;-72
2023/09/26 02:27:29;;;;;;;6.05;2.10;;;;;;;;;;4975355;28;20369;-72
2023/09/26 02:29:55;;;;;;;6.70;2.25;;;;;;;;;;4977182;28;20053;-72
2023/09/26 02:32:21;;;;;;;6.25;2.03;;;;;;;;;;4978937;28;20553;-72
2023/09/26 02:34:47;;;;;;;8.32;2.20;;;;;;;;;;4974926;28;20045;-72
2023/09/26 02:37:13;;;;;;;7.25;2.17;;;;;;;;;;4977022;28;20084;-71
2023/09/26 02:39:39;;;;;;;7.63;2.40;;;;;;;;;;4975756;28;20500;-72
2023/09/26 02:42:06;;;;;;;6.65;2.20;;;;;;;;;;4978092;28;21179;-71
2023/09/26 02:44:32;;;;;;;6.55;2.00;;;;;;;;;;4990156;28;20042;-71
2023/09/26 02:46:58;;;;;;;5.88;1.90;;;;;;;;;;4975719;28;20096;-71
2023/09/26 02:49:24;;;;;;;5.88;2.00;;;;;;;;;;4976218;28;20417;-71
2023/09/26 02:51:50;;;;;;;8.13;2.20;;;;;;;;;;4973024;28;20022;-72
2023/09/26 02:54:16;;;;;;;6.88;2.13;;;;;;;;;;4977752;28;20046;-72
2023/09/26 02:56:43;;;;;;;8.65;2.20;;;;;;;;;;4972824;28;20252;-72
2023/09/26 02:59:09;;;;;;;5.05;1.77;;;;;;;;;;4978995;28;20034;-71
2023/09/26 03:01:35;;;;;;;7.68;2.00;;;;;;;;;;4971726;28;20034;-72
2023/09/26 03:04:01;;;;;;;7.57;2.05;;;;;;;;;;4976668;28;20203;-72
2023/09/26 03:06:27;;;;;;;5.72;2.00;;;;;;;;;;4975489;28;20531;-72
2023/09/26 03:08:53;;;;;;;6.85;2.00;;;;;;;;;;4975944;28;20144;-70
2023/09/26 03:11:19;;;;;;;8.40;2.13;;;;;;;;;;4977454;28;20494;-70
2023/09/26 03:13:46;;;;;;;6.72;1.90;;;;;;;;;;4971984;28;20027;-70
2023/09/26 03:16:14;;;;;;;7.32;2.00;;;;;;;;;;4975425;28;20088;-71
2023/09/26 03:18:41;;;;;;;6.78;1.88;;;;;;;;;;4973619;28;20720;-71
2023/09/26 03:21:07;;;;;;;6.35;2.00;;;;;;;;;;4977253;28;20128;-70
2023/09/26 03:23:33;;;;;;;5.95;1.90;;;;;;;;;;4973463;28;20031;-71
2023/09/26 03:26:00;;;;;;;6.10;1.90;;;;;;;;;;4976444;28;20045;-71
2023/09/26 03:28:26;;;;;;;5.28;1.75;;;;;;;;;;4975996;28;20027;-73
2023/09/26 03:30:52;;;;;;;7.50;2.10;;;;;;;;;;4974548;28;20035;-71
2023/09/26 03:33:18;;;;;;;6.75;1.90;;;;;;;;;;4975493;28;20117;-71
2023/09/26 03:35:44;;;;;;;5.75;1.90;;;;;;;;;;4971718;28;20034;-71
2023/09/26 03:38:10;;;;;;;5.53;2.03;;;;;;;;;;4974378;28;21315;-70
2023/09/26 03:40:37;;;;;;;6.97;2.10;;;;;;;;;;4970498;28;20042;-71
2023/09/26 03:43:03;;;;;;;6.32;2.10;;;;;;;;;;4978451;28;20848;-71
2023/09/26 03:45:29;;;;;;;6.47;2.10;;;;;;;;;;4973510;28;20101;-71
2023/09/26 03:47:55;;;;;;;7.45;2.10;;;;;;;;;;4973940;28;20026;-71
2023/09/26 03:50:21;;;;;;;6.88;1.83;;;;;;;;;;4974162;28;20143;-71
2023/09/26 03:52:48;;;;;;;5.05;1.83;;;;;;;;;;4976239;28;20048;-70
2023/09/26 03:55:14;;;;;;;7.20;1.90;;;;;;;;;;4976272;28;20038;-72
2023/09/26 03:57:40;;;;;;;5.70;1.67;;;;;;;;;;4973844;28;20064;-71
2023/09/26 04:00:15;;;;;;;6.57;1.90;;;;;;;;;;4981609;28;20383;-71
2023/09/26 04:02:41;;;;;;;6.47;1.90;;;;;;;;;;4977552;28;20037;-71
2023/09/26 04:05:08;;;;;;;6.80;1.80;;;;;;;;;;4978994;28;20107;-72
2023/09/26 04:07:34;;;;;;;5.63;1.60;;;;;;;;;;4976602;28;20030;-70
2023/09/26 04:10:00;;;;;;;5.53;1.70;;;;;;;;;;4979874;28;20022;-72
2023/09/26 04:12:26;;;;;;;5.82;1.85;;;;;;;;;;4979438;28;20048;-72
2023/09/26 04:14:52;;;;;;;6.70;1.80;;;;;;;;;;4977274;28;20045;-70
2023/09/26 04:17:19;;;;;;;6.57;2.10;;;;;;;;;;4981020;28;20030;-70
2023/09/26 04:19:49;;;;;;;6.80;1.75;;;;;;;;;;4977996;28;20697;-72
2023/09/26 04:22:15;;;;;;;5.82;1.58;;;;;;;;;;4982319;28;20064;-71
2023/09/26 04:24:41;;;;;;;5.40;2.03;;;;;;;;;;4975025;28;20781;-70
2023/09/26 04:27:07;;;;;;;5.20;1.75;;;;;;;;;;4979493;28;20030;-70
2023/09/26 04:29:34;;;;;;;8.45;1.70;;;;;;;;;;4975860;28;20457;-70
2023/09/26 04:32:00;;;;;;;5.90;1.73;;;;;;;;;;4980472;28;20066;-70
2023/09/26 04:34:29;;;;;;;5.20;1.55;;;;;;;;;;4995384;28;20100;-70
2023/09/26 04:36:55;;;;;;;5.80;1.90;;;;;;;;;;4996547;28;20112;-72
2023/09/26 04:39:21;;;;;;;6.55;1.83;;;;;;;;;;4977226;28;20030;-70
2023/09/26 04:41:47;;;;;;;5.50;1.70;;;;;;;;;;4973939;28;20037;-72
2023/09/26 04:44:13;;;;;;;5.10;1.73;;;;;;;;;;4980670;28;20112;-70
2023/09/26 04:46:40;;;;;;;6.60;1.95;;;;;;;;;;4976219;28;20030;-70
2023/09/26 04:49:06;;;;;;;4.78;1.58;;;;;;;;;;4977251;28;20289;-70
2023/09/26 04:51:32;;;;;;;7.38;2.10;;;;;;;;;;4977418;28;20441;-70
2023/09/26 04:54:01;;;;;;;8.15;1.90;;;;;;;;;;4981950;28;20216;-70
2023/09/26 04:56:27;;;;;;;5.38;1.77;;;;;;;;;;4978815;28;20050;-71
2023/09/26 04:58:53;;;;;;;6.95;1.88;;;;;;;;;;4975835;28;20112;-71
2023/09/26 05:01:24;;;;;;;5.22;1.70;;;;;;;;;;4980879;28;20072;-71
2023/09/26 05:03:50;;;;;;;7.07;1.90;;;;;;;;;;4973165;28;20017;-71
2023/09/26 05:06:17;;;;;;;5.55;1.77;;;;;;;;;;4975826;28;20031;-71
2023/09/26 05:08:43;;;;;;;5.50;1.60;;;;;;;;;;4978535;28;20168;-71
2023/09/26 05:11:14;;;;;;;5.80;1.90;;;;;;;;;;4978241;28;20054;-71
2023/09/26 05:13:40;;;;;;;5.35;1.70;;;;;;;;;;4974679;28;20042;-73
2023/09/26 05:16:10;;;;;;;7.93;1.90;;;;;;;;;;4978006;28;20026;-70
2023/09/26 05:18:36;;;;;;;7.28;1.70;;;;;;;;;;4977839;28;20370;-72
2023/09/26 05:21:09;;;;;;;5.47;1.58;;;;;;;;;;4992179;28;20422;-72
2023/09/26 05:23:36;;;;;;;5.85;1.80;;;;;;;;;;4978079;28;20830;-71
2023/09/26 05:26:09;;;;;;;4.95;1.55;;;;;;;;;;4979796;28;20499;-71
2023/09/26 05:28:35;;;;;;;6.85;1.58;;;;;;;;;;4972846;28;20034;-70
2023/09/26 05:31:01;;;;;;;5.78;1.73;;;;;;;;;;4977246;28;20451;-73
2023/09/26 05:33:28;;;;;;;5.15;1.55;;;;;;;;;;4979237;28;20049;-71
2023/09/26 05:35:55;;;;;;;6.03;1.80;;;;;;;;;;4979257;28;20061;-71
2023/09/26 05:38:21;;;;;;;7.30;2.47;;;;;;;;;;4979368;28;20034;-72
2023/09/26 05:40:47;;;;;;;9.57;2.70;;;;;;;;;;4975639;28;20034;-70
2023/09/26 05:43:14;;;;;;;6.60;2.10;;;;;;;;;;4980327;28;20069;-70
2023/09/26 05:45:40;;;;;;;8.10;2.22;;;;;;;;;;4975255;28;20037;-70
2023/09/26 05:48:06;;;;;;;9.02;2.67;;;;;;;;;;4978995;28;20026;-70
2023/09/26 05:50:32;;;;;;;6.43;2.08;;;;;;;;;;4974214;28;20392;-72
2023/09/26 05:52:59;;;;;;;6.60;2.03;;;;;;;;;;4977985;28;20030;-72
2023/09/26 05:55:25;;;;;;;6.45;1.75;;;;;;;;;;4976839;28;20034;-70
2023/09/26 05:57:51;;;;;;;6.93;2.20;;;;;;;;;;4973495;28;20455;-72
2023/09/26 06:00:18;;;;;;;5.47;1.83;;;;;;;;;;4978422;28;20029;-72
2023/09/26 06:02:45;;;;;;;6.00;1.90;;;;;;;;;;4978562;28;20131;-72
2023/09/26 06:05:11;;;;;;;5.55;1.98;;;;;;;;;;4978131;28;20808;-72
2023/09/26 06:07:37;;;;;;;7.07;1.60;;;;;;;;;;4979420;28;20124;-72
2023/09/26 06:10:04;;;;;;;5.13;1.63;;;;;;;;;;4982036;28;20735;-72
2023/09/26 06:12:31;;;;;;;5.03;1.60;;;;;;;;;;4973839;28;20050;-72
2023/09/26 06:14:57;;;;;;;6.45;1.67;;;;;;;;;;4980622;28;20029;-72
2023/09/26 06:17:23;;;;;;;7.18;1.70;;;;;;;;;;4981688;28;20037;-72
2023/09/26 06:19:49;;;;;;;7.72;1.75;;;;;;;;;;4976893;28;20042;-72
2023/09/26 06:22:16;;;;;;;7.20;1.75;;;;;;;;;;4979795;28;20058;-72
2023/09/26 06:24:44;;;;;;;5.53;1.60;;;;;;;;;;4973968;28;20085;-72
2023/09/26 06:27:10;;;;;;;6.68;1.60;;;;;;;;;;4979533;28;20034;-70
2023/09/26 06:29:39;;;;;;;5.40;1.40;;;;;;;;;;4976570;28;20061;-71
2023/09/26 06:32:06;;;;;;;7.03;1.60;;;;;;;;;;4978549;28;20413;-70
2023/09/26 06:34:33;;;;;;;6.68;1.60;;;;;;;;;;4976859;28;20556;-70
2023/09/26 06:36:59;;;;;;;7.03;1.80;;;;;;;;;;4976862;28;20508;-70
2023/09/26 06:39:25;;;;;;;5.68;1.67;;;;;;;;;;4980080;28;20034;-70
2023/09/26 06:41:51;;;;;;;5.97;1.63;;;;;;;;;;4975298;28;20038;-70
2023/09/26 06:44:17;;;;;;;6.70;1.73;;;;;;;;;;4994461;28;20038;-71
2023/09/26 06:46:43;;;;;;;7.35;2.13;;;;;;;;;;4978400;28;20026;-71
2023/09/26 06:49:10;;;;;;;6.55;2.28;;;;;;;;;;4983348;28;20042;-71
2023/09/26 06:51:37;;;;;;;7.63;2.85;;;;;;;;;;4977545;28;20033;-70
2023/09/26 06:54:03;;;;;;;14.63;4.95;;;;;;;;;;4978334;28;20034;-70
2023/09/26 06:56:29;;;;;;;12.25;5.47;;;;;;;;;;4975349;28;20065;-74
2023/09/26 06:58:56;;;;;;;14.45;6.05;;;;;;;;;;4978050;28;20057;-72
2023/09/26 07:01:22;;;;;;;14.65;5.82;;;;;;;;;;4977862;28;20037;-70
2023/09/26 07:03:49;;;;;;;13.75;5.47;;;;;;;;;;4973536;28;20033;-72
2023/09/26 07:06:16;;;;;;;12.10;5.07;;;;;;;;;;4981645;28;20061;-70
2023/09/26 07:08:46;;;;;;;11.98;4.90;;;;;;;;;;4976793;28;20026;-71
2023/09/26 07:11:12;;;;;;;8.93;3.75;;;;;;;;;;4981172;28;20580;-71
2023/09/26 07:13:39;;;;;;;8.90;3.67;;;;;;;;;;4976825;28;20030;-70
2023/09/26 07:16:06;;;;;;;10.90;3.28;;;;;;;;;;4980554;28;20025;-71
2023/09/26 07:18:32;;;;;;;11.57;3.28;;;;;;;;;;4976301;28;20566;-71
2023/09/26 07:21:04;;;;;;;11.48;3.40;;;;;;;;;;4978111;28;20038;-70
2023/09/26 07:23:34;;;;;;;10.25;2.60;;;;;;;;;;4976053;28;20030;-71
2023/09/26 07:26:14;;;;;;;8.88;2.50;;;;;;;;;;4978193;28;20041;-70
2023/09/26 07:28:41;;;;;;;7.53;2.60;;;;;;;;;;4976925;28;20374;-70
2023/09/26 07:31:09;;;;;;;7.72;2.00;;;;;;;;;;4977057;28;20762;-73
2023/09/26 07:33:36;;;;;;;6.22;1.90;;;;;;;;;;4976282;28;20492;-72
2023/09/26 07:36:02;;;;;;;7.10;2.13;;;;;;;;;;4982409;28;20034;-72
2023/09/26 07:38:29;;;;;;;6.70;2.28;;;;;;;;;;4975724;28;20089;-73
2023/09/26 07:40:55;;;;;;;6.00;1.65;;;;;;;;;;4977747;28;20469;-72
2023/09/26 07:43:22;;;;;;;5.57;1.73;;;;;;;;;;4976950;28;20153;-70
2023/09/26 07:45:48;;;;;;;3.90;1.20;;;;;;;;;;4974208;28;20058;-71
2023/09/26 07:48:14;;;;;;;4.70;1.45;;;;;;;;;;4973511;28;20451;-70
2023/09/26 07:50:40;;;;;;;3.42;1.10;;;;;;;;;;4974794;28;20026;-70
2023/09/26 07:53:07;;;;;;;4.20;1.20;;;;;;;;;;4978121;28;20142;-70
2023/09/26 07:55:33;;;;;;;4.22;1.20;;;;;;;;;;4977181;28;20705;-71
2023/09/26 07:57:59;;;;;;;4.18;1.08;;;;;;;;;;4976569;28;20735;-71
2023/09/26 08:00:27;;;;;;;4.45;1.33;;;;;;;;;;4980427;28;20416;-71
2023/09/26 08:02:53;;;;;;;3.13;1.10;;;;;;;;;;4973362;28;20492;-71
2023/09/26 08:05:19;;;;;;;6.18;1.20;;;;;;;;;;4980159;28;20037;-71
2023/09/26 08:07:47;;;;;;;5.20;1.20;;;;;;;;;;4973509;28;20031;-71
2023/09/26 08:10:13;;;;;;;3.60;0.95;;;;;;;;;;4976949;28;20465;-71
2023/09/26 08:12:41;;;;;;;2.92;1.00;;;;;;;;;;4988772;28;20049;-71
2023/09/26 08:15:08;;;;;;;5.13;1.05;;;;;;;;;;4973616;28;20049;-71
2023/09/26 08:17:34;;;;;;;4.35;1.33;;;;;;;;;;4975482;28;20460;-71
2023/09/26 08:20:00;;;;;;;4.22;1.20;;;;;;;;;;4978052;28;20037;-71
2023/09/26 08:22:27;;;;;;;5.75;1.35;;;;;;;;;;4973132;28;20048;-71
2023/09/26 08:24:54;;;;;;;9.20;1.50;;;;;;;;;;4977289;28;20060;-71
2023/09/26 08:27:21;;;;;;;10.43;1.77;;;;;;;;;;4973534;28;20037;-70
2023/09/26 08:29:47;;;;;;;5.78;1.63;;;;;;;;;;4977543;28;20064;-70
2023/09/26 08:32:13;;;;;;;13.05;1.83;;;;;;;;;;4975775;28;20022;-72
2023/09/26 08:34:39;;;;;;;12.15;2.00;;;;;;;;;;4972678;28;20034;-70
2023/09/26 08:37:06;;;;;;;6.80;1.50;;;;;;;;;;4977449;28;20036;-72
2023/09/26 08:39:32;;;;;;;12.32;2.05;;;;;;;;;;4974145;28;20091;-70
2023/09/26 08:42:00;;;;;;;7.93;1.50;;;;;;;;;;4977921;28;20061;-71
2023/09/26 08:44:26;;;;;;;10.40;1.95;;;;;;;;;;4979659;28;20042;-70
2023/09/26 08:46:54;;;;;;;3.63;1.00;;;;;;;;;;4978255;28;20353;-70
2023/09/26 08:49:20;;;;;;;8.82;1.42;;;;;;;;;;4979923;28;20029;-71
2023/09/26 08:51:46;;;;;;;5.35;1.38;;;;;;;;;;4982805;28;20417;-71
2023/09/26 08:54:13;;;;;;;6.43;1.38;;;;;;;;;;4978272;28;20617;-71
2023/09/26 08:56:39;;;;;;;8.43;1.27;;;;;;;;;;4976790;28;20267;-71
2023/09/26 08:59:06;;;;;;;4.55;1.10;;;;;;;;;;4981124;28;20033;-70
2023/09/26 09:01:32;;;;;;;8.57;1.30;;;;;;;;;;4975651;28;20642;-71
2023/09/26 09:03:58;;;;;;;3.90;1.10;;;;;;;;;;4983432;28;20038;-70
2023/09/26 09:06:25;;;;;;;4.10;1.00;;;;;;;;;;4982813;28;20037;-70
2023/09/26 09:09:05;;;;;;;3.83;0.80;;;;;;;;;;4983338;28;20532;-73
2023/09/26 09:11:33;;;;;;;5.20;1.10;;;;;;;;;;4976727;28;20030;-71
2023/09/26 09:13:59;;;;;;;3.63;0.90;;;;;;;;;;4977912;28;20040;-71
2023/09/26 09:16:25;;;;;;;6.30;1.10;;;;;;;;;;4980555;28;20037;-72
2023/09/26 09:18:57;;;;;;;4.85;1.13;;;;;;;;;;4978897;28;20037;-72
2023/09/26 09:21:29;;;;;;;5.40;1.23;;;;;;;;;;4981201;28;20693;-72
2023/09/26 09:23:56;;;;;;;3.95;1.00;;;;;;;;;;4979612;28;20022;-70
2023/09/26 09:26:23;;;;;;;4.38;1.00;;;;;;;;;;4984072;28;20034;-71
2023/09/26 09:28:51;;;;;;;4.18;1.13;;;;;;;;;;4975967;28;20727;-70
2023/09/26 09:31:18;;;;;;;6.40;1.40;;;;;;;;;;4978149;28;20109;-73
2023/09/26 09:33:47;;;;;;;6.35;1.38;;;;;;;;;;4978045;28;20488;-71
2023/09/26 09:36:14;;;;;;;6.32;1.30;;;;;;;;;;4977828;28;20525;-71
2023/09/26 09:38:40;;;;;;;5.85;1.23;;;;;;;;;;4978631;28;20117;-71
2023/09/26 09:41:10;;;;;;;9.30;1.38;;;;;;;;;;4981345;28;20030;-71
2023/09/26 09:43:40;;;;;;;6.22;1.33;;;;;;;;;;4974093;28;20509;-71
2023/09/26 09:46:08;;;;;;;9.40;1.38;;;;;;;;;;4978061;28;20476;-70
2023/09/26 09:48:44;;;;;;;6.03;1.30;;;;;;;;;;4977749;28;20659;-71
2023/09/26 09:51:14;;;;;;;7.00;1.25;;;;;;;;;;4977860;28;20030;-71
2023/09/26 09:53:42;;;;;;;5.55;1.30;;;;;;;;;;4977604;28;20021;-71
2023/09/26 09:56:09;;;;;;;5.25;1.27;;;;;;;;;;4980304;28;20309;-73
2023/09/26 09:58:48;;;;;;;5.78;1.30;;;;;;;;;;4975621;28;20030;-73
2023/09/26 10:01:14;;;;;;;4.22;1.10;;;;;;;;;;4976658;28;20428;-73
2023/09/26 10:03:41;;;;;;;4.32;1.10;;;;;;;;;;4974512;28;20122;-71
2023/09/26 10:06:08;;;;;;;3.90;1.10;;;;;;;;;;4980072;28;20467;-70
2023/09/26 10:08:35;;;;;;;6.75;1.08;;;;;;;;;;4975497;28;20348;-71
2023/09/26 10:11:02;;;;;;;6.97;1.35;;;;;;;;;;4978010;28;20456;-74
2023/09/26 10:13:28;;;;;;;6.03;1.48;;;;;;;;;;4995995;28;20038;-73
2023/09/26 10:16:11;;;;;;;3.45;1.02;;;;;;;;;;4980221;28;20030;-72
2023/09/26 10:18:37;;;;;;;3.28;0.98;;;;;;;;;;4978919;28;20026;-71
2023/09/26 10:21:04;;;;;;;3.22;0.90;;;;;;;;;;4980054;28;20033;-71
2023/09/26 10:23:30;;;;;;;4.07;0.95;;;;;;;;;;4979006;28;20222;-71
2023/09/26 10:25:57;;;;;;;5.03;1.00;;;;;;;;;;4975843;28;20416;-71
2023/09/26 10:28:23;;;;;;;4.63;1.20;;;;;;;;;;4978297;28;20428;-70
2023/09/26 10:30:54;;;;;;;2.17;0.80;;;;;;;;;;4974079;28;20480;-71
2023/09/26 10:33:21;;;;;;;3.70;1.08;;;;;;;;;;4980040;28;20040;-71
2023/09/26 10:35:47;;;;;;;2.80;0.88;;;;;;;;;;4974152;28;20430;-72
2023/09/26 10:38:18;;;;;;;4.57;1.25;;;;;;;;;;4980386;28;20364;-72
2023/09/26 10:40:45;;;;;;;4.05;0.90;;;;;;;;;;4993917;28;20026;-72
2023/09/26 10:43:11;;;;;;;3.97;1.00;;;;;;;;;;4976634;28;20046;-73
2023/09/26 10:45:42;;;;;;;5.15;1.10;;;;;;;;;;4975366;28;20045;-71
2023/09/26 10:48:08;;;;;;;5.35;1.30;;;;;;;;;;4979620;28;20095;-73
2023/09/26 10:50:34;;;;;;;7.70;0.98;;;;;;;;;;4975307;28;20507;-73
2023/09/26 10:53:00;;;;;;;4.28;1.23;;;;;;;;;;4982464;28;20350;-73
2023/09/26 10:55:27;;;;;;;3.92;0.90;;;;;;;;;;4979111;28;20250;-74
2023/09/26 10:57:53;;;;;;;4.90;1.08;;;;;;;;;;4976998;28;20026;-74
2023/09/26 11:00:19;;;;;;;2.90;0.93;;;;;;;;;;4980408;28;20030;-73
2023/09/26 11:02:47;;;;;;;5.57;1.20;;;;;;;;;;4974520;28;20045;-73
2023/09/26 11:05:14;;;;;;;4.00;0.80;;;;;;;;;;4995890;28;20495;-73
2023/09/26 11:07:41;;;;;;;4.45;0.90;;;;;;;;;;4973697;28;20030;-73
2023/09/26 11:10:16;;;;;;;4.75;1.17;;;;;;;;;;4980469;28;20484;-74
2023/09/26 11:12:43;;;;;;;6.53;1.10;;;;;;;;;;4978460;28;20050;-73
2023/09/26 11:15:10;;;;;;;6.57;1.17;;;;;;;;;;4982848;28;20029;-75
2023/09/26 11:17:39;;;;;;;3.42;0.90;;;;;;;;;;4974648;28;20050;-75
2023/09/26 11:20:06;;;;;;;4.88;1.08;;;;;;;;;;4991616;28;20026;-76
2023/09/26 11:22:45;;;;;;;3.80;0.93;;;;;;;;;;4976270;28;20699;-76
2023/09/26 11:25:11;;;;;;;6.15;1.25;;;;;;;;;;4972328;28;20042;-75
2023/09/26 11:27:41;;;;;;;6.43;1.10;;;;;;;;;;4978253;28;20480;-74
2023/09/26 11:30:09;;;;;;;5.05;1.08;;;;;;;;;;4977092;28;20554;-74
2023/09/26 11:32:35;;;;;;;4.25;1.10;;;;;;;;;;4971902;28;20468;-74
2023/09/26 11:35:03;;;;;;;7.30;1.40;;;;;;;;;;4975690;28;20033;-74
2023/09/26 11:37:32;;;;;;;5.80;1.00;;;;;;;;;;4974856;28;20104;-74
2023/09/26 11:39:59;;;;;;;3.47;0.80;;;;;;;;;;4976297;28;20120;-74
2023/09/26 11:42:25;;;;;;;3.42;0.90;;;;;;;;;;4972238;28;20449;-74
2023/09/26 11:44:55;;;;;;;4.47;0.95;;;;;;;;;;4973651;28;20030;-74
2023/09/26 11:47:25;;;;;;;4.85;1.08;;;;;;;;;;4992174;28;20034;-74
2023/09/26 11:49:55;;;;;;;3.70;1.00;;;;;;;;;;4972519;28;20563;-74
2023/09/26 11:52:21;;;;;;;4.10;1.00;;;;;;;;;;4981185;28;20369;-75
2023/09/26 11:54:47;;;;;;;4.43;1.05;;;;;;;;;;4971832;28;20030;-74
2023/09/26 11:57:13;;;;;;;3.55;0.93;;;;;;;;;;4977983;28;20036;-74
2023/09/26 11:59:43;;;;;;;6.13;1.63;;;;;;;;;;4974460;28;20057;-74
2023/09/26 12:02:09;;;;;;;5.30;1.38;;;;;;;;;;4975373;28;20029;-76
2023/09/26 12:04:35;;;;;;;4.78;1.30;;;;;;;;;;4973988;28;20141;-75
2023/09/26 12:07:03;;;;;;;8.88;2.40;;;;;;;;;;4974383;28;20073;-75
2023/09/26 12:09:29;;;;;;;5.30;1.17;;;;;;;;;;4970037;28;20454;-74
2023/09/26 12:11:56;;;;;;;3.40;0.93;;;;;;;;;;4975364;28;20049;-74
2023/09/26 12:14:22;;;;;;;3.40;1.00;;;;;;;;;;4974199;28;20034;-74
2023/09/26 12:16:50;;;;;;;4.78;1.55;;;;;;;;;;4974616;28;20296;-75
2023/09/26 12:19:17;;;;;;;6.68;1.15;;;;;;;;;;4976657;28;20049;-74
2023/09/26 12:21:44;;;;;;;4.40;1.10;;;;;;;;;;4979252;28;20495;-74
2023/09/26 12:24:10;;;;;;;5.05;1.48;;;;;;;;;;4981940;28;20172;-75
2023/09/26 12:26:38;;;;;;;4.32;1.05;;;;;;;;;;4976946;28;20574;-74
2023/09/26 12:29:04;;;;;;;5.05;1.20;;;;;;;;;;4977417;28;20322;-74
2023/09/26 12:31:31;;;;;;;5.72;1.20;;;;;;;;;;4976578;28;20022;-74
2023/09/26 12:33:57;;;;;;;4.80;1.70;;;;;;;;;;4978539;28;20110;-74
2023/09/26 12:36:23;;;;;;;5.25;1.08;;;;;;;;;;4979930;28;20038;-75
2023/09/26 12:38:49;;;;;;;2.72;0.80;;;;;;;;;;4973515;28;24121;-74
2023/09/26 12:41:15;;;;;;;2.60;0.88;;;;;;;;;;4977623;28;20131;-74
2023/09/26 12:43:42;;;;;;;2.95;0.95;;;;;;;;;;4974558;28;20441;-75
2023/09/26 12:46:08;;;;;;;4.60;1.23;;;;;;;;;;4976733;28;21516;-75
2023/09/26 12:48:34;;;;;;;7.25;3.25;;;;;;;;;;4978352;28;20129;-74
2023/09/26 12:51:00;;;;;;;6.60;2.03;;;;;;;;;;4980137;28;20568;-74
2023/09/26 12:53:27;;;;;;;5.00;1.90;;;;;;;;;;4979000;28;20038;-74
2023/09/26 12:55:54;;;;;;;6.97;2.42;;;;;;;;;;4977165;28;20135;-75
2023/09/26 12:58:21;;;;;;;6.22;1.90;;;;;;;;;;4978098;28;20018;-75
2023/09/26 13:00:47;;;;;;;3.72;1.27;;;;;;;;;;4975492;28;20084;-75
2023/09/26 13:03:14;;;;;;;6.18;2.38;;;;;;;;;;4975307;28;20037;-75
2023/09/26 13:05:40;;;;;;;7.18;2.45;;;;;;;;;;4973821;28;20038;-75
2023/09/26 13:08:06;;;;;;;7.25;2.60;;;;;;;;;;4977080;28;20060;-75
2023/09/26 13:10:34;;;;;;;3.95;1.40;;;;;;;;;;4971280;28;20026;-75
2023/09/26 13:13:00;;;;;;;4.20;1.40;;;;;;;;;;4980137;28;20041;-75
2023/09/26 13:15:28;;;;;;;3.13;1.10;;;;;;;;;;4978722;28;20836;-75
2023/09/26 13:17:54;;;;;;;3.70;1.20;;;;;;;;;;4989780;28;20041;-75
2023/09/26 13:20:20;;;;;;;6.18;1.58;;;;;;;;;;4976303;28;20091;-75
2023/09/26 13:22:46;;;;;;;6.55;1.60;;;;;;;;;;4991992;28;20034;-75
2023/09/26 13:25:13;;;;;;;5.70;2.67;;;;;;;;;;4979448;28;20042;-75
2023/09/26 13:27:39;;;;;;;6.35;2.20;;;;;;;;;;4975557;28;20034;-74
2023/09/26 13:30:06;;;;;;;7.63;4.03;;;;;;;;;;4977484;28;20650;-73
2023/09/26 13:32:32;;;;;;;6.85;1.50;;;;;;;;;;4975206;28;20037;-74
2023/09/26 13:34:59;;;;;;;4.68;1.70;;;;;;;;;;4980044;28;20101;-74
2023/09/26 13:37:25;;;;;;;3.67;1.38;;;;;;;;;;4980907;28;20034;-74
2023/09/26 13:39:51;;;;;;;5.43;1.80;;;;;;;;;;4978678;28;20405;-74
2023/09/26 13:42:18;;;;;;;9.40;1.65;;;;;;;;;;4980344;28;20046;-74
2023/09/26 13:44:44;;;;;;;13.98;2.10;;;;;;;;;;4974509;28;20065;-74
2023/09/26 13:47:10;;;;;;;5.93;1.20;;;;;;;;;;4976746;28;20022;-74
2023/09/26 13:49:36;;;;;;;11.32;1.98;;;;;;;;;;4976312;28;20036;-73
2023/09/26 13:52:03;;;;;;;9.48;2.20;;;;;;;;;;4979304;28;20128;-75
2023/09/26 13:54:30;;;;;;;8.68;1.27;;;;;;;;;;4977744;28;20040;-74
2023/09/26 13:56:56;;;;;;;6.43;1.70;;;;;;;;;;4974958;28;20140;-74
2023/09/26 13:59:22;;;;;;;11.18;4.93;;;;;;;;;;4977054;28;20100;-74
2023/09/26 14:01:48;;;;;;;9.32;2.67;;;;;;;;;;4973505;28;20030;-76
2023/09/26 14:04:15;;;;;;;6.57;1.80;;;;;;;;;;4977577;28;20041;-73
2023/09/26 14:06:41;;;;;;;7.07;1.77;;;;;;;;;;4976580;28;20036;-74
2023/09/26 14:09:07;;;;;;;6.90;1.60;;;;;;;;;;4978293;28;20036;-74
2023/09/26 14:11:33;;;;;;;5.00;1.20;;;;;;;;;;4972663;28;20374;-75
2023/09/26 14:13:59;;;;;;;4.68;1.20;;;;;;;;;;4978840;28;20055;-75
2023/09/26 14:16:25;;;;;;;5.97;1.40;;;;;;;;;;4981405;28;20045;-75
2023/09/26 14:18:51;;;;;;;5.55;1.38;;;;;;;;;;4977982;28;20036;-74
2023/09/26 14:21:18;;;;;;;4.15;1.27;;;;;;;;;;4977087;28;20459;-74
2023/09/26 14:23:44;;;;;;;6.88;1.40;;;;;;;;;;4973623;28;20535;-74
2023/09/26 14:26:11;;;;;;;5.18;1.55;;;;;;;;;;4979681;28;20070;-75
2023/09/26 14:28:40;;;;;;;6.40;1.60;;;;;;;;;;4975144;28;20026;-76
2023/09/26 14:31:07;;;;;;;6.07;1.40;;;;;;;;;;4976763;28;20313;-74
2023/09/26 14:33:34;;;;;;;11.23;1.52;;;;;;;;;;4974312;28;20030;-74
2023/09/26 14:36:01;;;;;;;6.53;1.70;;;;;;;;;;4978063;28;20036;-75
2023/09/26 14:38:27;;;;;;;10.80;2.05;;;;;;;;;;4975666;28;20423;-75
2023/09/26 14:40:54;;;;;;;13.35;1.80;;;;;;;;;;4978768;28;20060;-75